createdAt,value
2022-08-31T00:02:40.607Z,102499.13
2022-08-31T00:05:08.193Z,102496.44
2022-08-31T00:07:35.212Z,102497.44
2022-08-31T00:10:14.036Z,102490.22
2022-08-31T00:12:46.063Z,102487.16
2022-08-31T00:15:17.026Z,102490.84
2022-08-31T00:17:44.365Z,102496.19
2022-08-31T00:20:30.634Z,102482.78
2022-08-31T00:22:59.649Z,102490.00
2022-08-31T00:25:26.311Z,102483.06
2022-08-31T00:27:53.011Z,102490.50
2022-08-31T00:30:19.540Z,102477.69
2022-08-31T00:32:46.075Z,102474.31
2022-08-31T00:35:14.542Z,102483.63
2022-08-31T00:37:41.085Z,102484.91
2022-08-31T00:40:09.227Z,102478.28
2022-08-31T00:42:36.029Z,102485.47
2022-08-31T00:45:04.721Z,102489.00
2022-08-31T00:47:31.950Z,102476.03
2022-08-31T00:49:59.610Z,102484.91
2022-08-31T00:52:33.382Z,102484.06
2022-08-31T00:55:11.854Z,102493.97
2022-08-31T00:57:41.561Z,102482.38
2022-08-31T01:00:14.019Z,102488.44
2022-08-31T01:02:40.808Z,102481.69
2022-08-31T01:05:08.745Z,102481.81
2022-08-31T01:07:36.168Z,102477.16
2022-08-31T01:10:03.591Z,102489.59
2022-08-31T01:12:30.260Z,102491.28
2022-08-31T01:14:57.659Z,102488.44
2022-08-31T01:17:24.273Z,102491.28
2022-08-31T01:20:12.222Z,102490.19
2022-08-31T01:23:12.851Z,102485.91
2022-08-31T01:25:43.020Z,102486.06
2022-08-31T01:28:10.276Z,102487.03
2022-08-31T01:30:37.730Z,102492.69
2022-08-31T01:33:05.076Z,102489.16
2022-08-31T01:35:32.989Z,102488.78
2022-08-31T01:38:00.285Z,102496.66
2022-08-31T01:40:35.693Z,102485.38
2022-08-31T01:43:02.354Z,102488.78
2022-08-31T01:45:29.140Z,102494.28
2022-08-31T01:47:55.856Z,102489.06
2022-08-31T01:50:22.474Z,102497.09
2022-08-31T01:52:48.993Z,102491.59
2022-08-31T01:55:15.691Z,102497.38
2022-08-31T01:57:42.324Z,102499.09
2022-08-31T02:00:09.828Z,102507.13
2022-08-31T02:02:36.706Z,102507.28
2022-08-31T02:05:03.670Z,102498.66
2022-08-31T02:07:30.272Z,102493.16
2022-08-31T02:09:56.829Z,102510.22
2022-08-31T02:12:23.456Z,102506.84
2022-08-31T02:14:50.060Z,102510.53
2022-08-31T02:17:16.686Z,102503.78
2022-08-31T02:19:43.400Z,102508.00
2022-08-31T02:22:09.977Z,102501.50
2022-08-31T02:24:36.524Z,102494.91
2022-08-31T02:27:03.170Z,102496.44
2022-08-31T02:29:29.679Z,102494.91
2022-08-31T02:31:57.172Z,102500.94
2022-08-31T02:34:23.741Z,102501.97
2022-08-31T02:36:50.300Z,102502.81
2022-08-31T02:39:16.876Z,102504.63
2022-08-31T02:41:43.566Z,102498.56
2022-08-31T02:44:10.291Z,102499.56
2022-08-31T02:46:36.858Z,102503.22
2022-08-31T02:49:03.760Z,102501.66
2022-08-31T02:51:30.347Z,102499.84
2022-08-31T02:53:56.872Z,102490.38
2022-08-31T02:56:23.872Z,102493.06
2022-08-31T02:58:54.812Z,102489.66
2022-08-31T03:01:24.046Z,102497.72
2022-08-31T03:03:50.847Z,102500.72
2022-08-31T03:06:18.897Z,102496.31
2022-08-31T03:08:46.320Z,102503.09
2022-08-31T03:11:13.479Z,102492.81
2022-08-31T03:13:41.338Z,102499.16
2022-08-31T03:16:09.425Z,102496.91
2022-08-31T03:18:36.044Z,102496.06
2022-08-31T03:21:02.552Z,102489.28
2022-08-31T03:23:29.135Z,102496.91
2022-08-31T03:25:55.875Z,102499.72
2022-08-31T03:28:22.541Z,102504.09
2022-08-31T03:30:49.366Z,102500.00
2022-08-31T03:33:16.141Z,102501.69
2022-08-31T03:35:44.240Z,102507.03
2022-08-31T03:38:12.969Z,102509.44
2022-08-31T03:40:43.808Z,102500.41
2022-08-31T03:43:11.573Z,102508.59
2022-08-31T03:45:42.596Z,102511.41
2022-08-31T03:48:12.838Z,102507.88
2022-08-31T03:50:40.635Z,102512.25
2022-08-31T03:53:08.160Z,102511.53
2022-08-31T03:55:36.408Z,102516.91
2022-08-31T03:58:04.854Z,102514.47
2022-08-31T04:00:34.016Z,102523.09
2022-08-31T04:03:01.627Z,102523.22
2022-08-31T04:05:34.482Z,102518.72
2022-08-31T04:08:00.991Z,102523.94
2022-08-31T04:10:27.501Z,102522.13
2022-08-31T04:12:54.092Z,102524.78
2022-08-31T04:15:22.422Z,102522.25
2022-08-31T04:17:49.029Z,102520.69
2022-08-31T04:20:18.759Z,102524.09
2022-08-31T04:22:56.277Z,102527.75
2022-08-31T04:25:22.782Z,102526.06
2022-08-31T04:27:50.382Z,102521.94
2022-08-31T04:30:17.992Z,102537.03
2022-08-31T04:32:44.501Z,102535.34
2022-08-31T04:35:11.103Z,102531.97
2022-08-31T04:37:37.609Z,102531.13
2022-08-31T04:40:18.191Z,102543.69
2022-08-31T04:42:49.001Z,102541.72
2022-08-31T04:45:17.033Z,102540.16
2022-08-31T04:47:43.740Z,102541.72
2022-08-31T04:50:12.806Z,102539.19
2022-08-31T04:52:39.371Z,102538.47
2022-08-31T04:55:07.227Z,102548.19
2022-08-31T04:57:35.693Z,102544.94
2022-08-31T05:00:05.611Z,102549.19
2022-08-31T05:02:33.365Z,102552.00
2022-08-31T05:05:00.897Z,102552.72
2022-08-31T05:07:27.499Z,102548.47
2022-08-31T05:09:54.213Z,102556.38
2022-08-31T05:12:20.801Z,102549.59
2022-08-31T05:14:47.899Z,102555.66
2022-08-31T05:17:15.997Z,102550.84
2022-08-31T05:19:43.937Z,102565.66
2022-08-31T05:22:10.902Z,102563.25
2022-08-31T05:24:38.924Z,102564.81
2022-08-31T05:27:06.488Z,102568.34
2022-08-31T05:29:33.051Z,102569.19
2022-08-31T05:31:59.623Z,102564.81
2022-08-31T05:34:26.817Z,102571.72
2022-08-31T05:36:55.867Z,102567.34
2022-08-31T05:39:23.065Z,102564.69
2022-08-31T05:41:49.993Z,102572.72
2022-08-31T05:44:17.489Z,102572.44
2022-08-31T05:46:44.425Z,102575.97
2022-08-31T05:49:11.897Z,102572.31
2022-08-31T05:51:39.453Z,102565.13
2022-08-31T05:54:07.499Z,102564.00
2022-08-31T05:56:35.692Z,102569.06
2022-08-31T05:59:02.389Z,102565.25
2022-08-31T06:01:35.390Z,102573.59
2022-08-31T06:04:02.704Z,102564.59
2022-08-31T06:06:30.468Z,102571.22
2022-08-31T06:08:57.732Z,102566.44
2022-08-31T06:11:28.387Z,102566.84
2022-08-31T06:13:57.117Z,102570.81
2022-08-31T06:16:23.796Z,102583.81
2022-08-31T06:18:51.290Z,102570.09
2022-08-31T06:21:21.057Z,102579.72
2022-08-31T06:23:50.053Z,102574.34
2022-08-31T06:26:18.970Z,102581.00
2022-08-31T06:28:48.932Z,102575.50
2022-08-31T06:31:26.892Z,102576.47
2022-08-31T06:33:55.890Z,102576.03
2022-08-31T06:36:26.309Z,102587.31
2022-08-31T06:38:56.554Z,102577.16
2022-08-31T06:41:27.267Z,102581.53
2022-08-31T06:43:54.433Z,102580.13
2022-08-31T06:46:23.475Z,102579.13
2022-08-31T06:48:53.580Z,102576.16
2022-08-31T06:51:20.169Z,102576.88
2022-08-31T06:53:46.937Z,102578.81
2022-08-31T06:56:20.670Z,102580.25
2022-08-31T06:58:53.514Z,102586.19
2022-08-31T07:01:34.855Z,102589.28
2022-08-31T07:04:05.491Z,102588.28
2022-08-31T07:06:37.036Z,102580.66
2022-08-31T07:09:06.414Z,102595.50
2022-08-31T07:11:44.816Z,102589.16
2022-08-31T07:14:18.699Z,102573.31
2022-08-31T07:16:46.377Z,102589.41
2022-08-31T07:19:14.007Z,102586.44
2022-08-31T07:21:50.135Z,102592.03
2022-08-31T07:24:23.073Z,102588.38
2022-08-31T07:27:00.779Z,102595.00
2022-08-31T07:29:36.586Z,102589.34
2022-08-31T07:32:03.613Z,102594.69
2022-08-31T07:34:31.289Z,102602.44
2022-08-31T07:37:17.916Z,102605.84
2022-08-31T07:40:07.493Z,102595.09
2022-08-31T07:42:38.676Z,102596.22
2022-08-31T07:45:12.250Z,102598.78
2022-08-31T07:47:46.116Z,102597.59
2022-08-31T07:50:14.767Z,102599.16
2022-08-31T07:52:54.287Z,102595.47
2022-08-31T07:55:25.939Z,102605.09
2022-08-31T07:57:55.018Z,102596.88
2022-08-31T08:00:25.579Z,102599.56
2022-08-31T08:02:53.963Z,102603.81
2022-08-31T08:05:27.036Z,102596.97
2022-08-31T08:07:56.233Z,102600.94
2022-08-31T08:10:24.247Z,102599.50
2022-08-31T08:13:00.790Z,102599.06
2022-08-31T08:15:33.891Z,102608.97
2022-08-31T08:18:03.401Z,102607.66
2022-08-31T08:20:37.856Z,102599.47
2022-08-31T08:23:14.363Z,102586.75
2022-08-31T08:25:45.085Z,102608.59
2022-08-31T08:31:06.184Z,102603.50
2022-08-31T08:33:35.189Z,102614.94
2022-08-31T08:36:07.316Z,102605.00
2022-08-31T08:38:35.016Z,102616.16
2022-08-31T08:41:05.463Z,102608.50
2022-08-31T08:43:35.499Z,102610.88
2022-08-31T08:46:20.143Z,102614.25
2022-08-31T08:48:55.498Z,102617.63
2022-08-31T08:51:26.576Z,102607.72
2022-08-31T08:53:59.943Z,102607.81
2022-08-31T08:56:33.179Z,102616.25
2022-08-31T08:59:00.726Z,102610.88
2022-08-31T09:01:29.547Z,102607.81
2022-08-31T09:04:21.875Z,102591.16
2022-08-31T09:07:30.859Z,102608.19
2022-08-31T09:10:25.793Z,102609.88
2022-08-31T09:13:13.303Z,102598.97
2022-08-31T09:15:58.921Z,102601.53
2022-08-31T09:18:47.109Z,102604.06
2022-08-31T09:21:34.461Z,102599.53
2022-08-31T09:24:02.618Z,102600.69
2022-08-31T09:26:50.336Z,102607.44
2022-08-31T09:29:28.945Z,102594.88
2022-08-31T09:32:07.014Z,102599.94
2022-08-31T09:34:37.369Z,102593.69
2022-08-31T09:37:21.527Z,102593.69
2022-08-31T09:39:51.286Z,102592.84
2022-08-31T09:42:31.514Z,102601.63
2022-08-31T09:45:07.737Z,102600.91
2022-08-31T09:48:01.221Z,102596.53
2022-08-31T09:50:32.752Z,102591.84
2022-08-31T09:53:32.769Z,102601.78
2022-08-31T09:56:14.288Z,102599.22
2022-08-31T09:59:03.113Z,102590.63
2022-08-31T10:01:44.443Z,102584.53
2022-08-31T10:04:15.962Z,102591.91
2022-08-31T10:06:46.776Z,102591.06
2022-08-31T10:09:37.227Z,102592.91
2022-08-31T10:12:09.019Z,102585.00
2022-08-31T10:14:52.270Z,102603.50
2022-08-31T10:17:26.292Z,102593.91
2022-08-31T10:20:09.807Z,102584.00
2022-08-31T10:22:57.850Z,102596.28
2022-08-31T10:25:33.714Z,102591.75
2022-08-31T10:28:17.215Z,102588.22
2022-08-31T10:31:23.880Z,102589.22
2022-08-31T10:34:35.347Z,102591.22
2022-08-31T10:37:26.014Z,102585.97
2022-08-31T10:39:58.278Z,102587.69
2022-08-31T10:42:29.995Z,102597.44
2022-08-31T10:45:04.220Z,102575.22
2022-08-31T10:47:41.556Z,102580.09
2022-08-31T10:50:10.409Z,102558.88
2022-08-31T10:52:48.268Z,102573.53
2022-08-31T10:55:35.198Z,102567.16
2022-08-31T10:58:11.922Z,102573.38
2022-08-31T11:00:49.484Z,102571.03
2022-08-31T11:03:21.899Z,102581.31
2022-08-31T11:05:59.787Z,102575.94
2022-08-31T11:08:55.908Z,102575.22
2022-08-31T11:11:43.711Z,102577.22
2022-08-31T11:14:45.071Z,102570.19
2022-08-31T11:17:34.388Z,102574.16
2022-08-31T11:20:26.067Z,102575.72
2022-08-31T11:23:06.198Z,102574.00
2022-08-31T11:26:11.022Z,102561.56
2022-08-31T11:28:48.233Z,102568.09
2022-08-31T11:31:24.121Z,102571.19
2022-08-31T11:34:15.648Z,102565.81
2022-08-31T11:36:46.940Z,102562.25
2022-08-31T11:39:13.501Z,102560.28
2022-08-31T11:41:46.457Z,102568.34
2022-08-31T11:44:39.283Z,102561.28
2022-08-31T11:47:07.118Z,102557.03
2022-08-31T11:49:55.870Z,102544.59
2022-08-31T11:52:24.481Z,102549.81
2022-08-31T11:54:52.542Z,102550.50
2022-08-31T11:57:35.621Z,102548.50
2022-08-31T12:00:19.386Z,102535.22
2022-08-31T12:02:46.073Z,102547.63
2022-08-31T12:05:12.983Z,102543.59
2022-08-31T12:07:45.120Z,102537.59
2022-08-31T12:10:27.214Z,102537.44
2022-08-31T12:13:09.389Z,102530.06
2022-08-31T12:16:01.359Z,102533.44
2022-08-31T12:18:58.754Z,102536.28
2022-08-31T12:21:55.999Z,102538.81
2022-08-31T12:24:43.832Z,102538.81
2022-08-31T12:27:25.075Z,102520.84
2022-08-31T12:29:51.803Z,102509.38
2022-08-31T12:32:25.889Z,102523.22
2022-08-31T12:35:02.593Z,102521.22
2022-08-31T12:37:35.786Z,102513.16
2022-08-31T12:40:26.208Z,102515.03
2022-08-31T12:43:20.950Z,102515.03
2022-08-31T12:46:13.648Z,102506.97
2022-08-31T12:49:17.921Z,102497.72
2022-08-31T12:52:12.045Z,102512.69
2022-08-31T12:55:16.793Z,102501.09
2022-08-31T12:58:04.847Z,102505.63
2022-08-31T13:00:39.449Z,102492.19
2022-08-31T13:03:14.386Z,102488.97
2022-08-31T13:05:41.854Z,102479.03
2022-08-31T13:08:24.771Z,102491.88
2022-08-31T13:10:51.792Z,102482.13
2022-08-31T13:13:28.609Z,102485.19
2022-08-31T13:16:04.541Z,102478.97
2022-08-31T13:18:31.446Z,102471.59
2022-08-31T13:21:05.985Z,102487.09
2022-08-31T13:23:36.193Z,102474.94
2022-08-31T13:26:15.127Z,102479.84
2022-08-31T13:28:42.014Z,102477.84
2022-08-31T13:31:09.389Z,102473.47
2022-08-31T13:33:40.218Z,102468.25
2022-08-31T13:36:32.971Z,102459.34
2022-08-31T13:39:23.457Z,102459.72
2022-08-31T13:42:05.911Z,102459.41
2022-08-31T13:44:39.251Z,102452.19
2022-08-31T13:47:29.619Z,102453.00
2022-08-31T13:50:08.836Z,102455.69
2022-08-31T13:52:37.314Z,102455.53
2022-08-31T13:55:12.059Z,102445.44
2022-08-31T13:57:39.073Z,102456.75
2022-08-31T14:00:35.284Z,102440.59
2022-08-31T14:03:51.435Z,102447.84
2022-08-31T14:06:25.722Z,102444.97
2022-08-31T14:09:03.441Z,102439.44
2022-08-31T14:11:31.512Z,102436.91
2022-08-31T14:14:06.473Z,102433.91
2022-08-31T14:16:37.550Z,102436.75
2022-08-31T14:19:04.465Z,102436.44
2022-08-31T14:21:35.084Z,102439.47
2022-08-31T14:24:07.736Z,102424.34
2022-08-31T14:26:37.264Z,102440.84
2022-08-31T14:29:10.958Z,102441.38
2022-08-31T14:31:52.133Z,102433.13
2022-08-31T14:34:28.156Z,102431.28
2022-08-31T14:37:06.868Z,102424.72
2022-08-31T14:39:43.124Z,102422.88
2022-08-31T14:42:18.864Z,102426.94
2022-08-31T14:44:56.601Z,102432.16
2022-08-31T14:47:26.079Z,102416.50
2022-08-31T14:49:52.589Z,102416.03
2022-08-31T14:52:19.286Z,102418.19
2022-08-31T14:54:47.675Z,102419.72
2022-08-31T14:57:19.125Z,102415.16
2022-08-31T14:59:47.023Z,102421.25
2022-08-31T15:02:21.187Z,102416.03
2022-08-31T15:04:48.504Z,102411.78
2022-08-31T15:07:16.452Z,102401.66
2022-08-31T15:09:44.890Z,102407.41
2022-08-31T15:12:14.826Z,102416.88
2022-08-31T15:14:44.739Z,102413.31
2022-08-31T15:17:19.242Z,102410.63
2022-08-31T15:19:48.089Z,102407.94
2022-08-31T15:22:15.954Z,102404.09
2022-08-31T15:24:44.850Z,102402.88
2022-08-31T15:27:13.596Z,102401.75
2022-08-31T15:29:41.820Z,102406.81
2022-08-31T15:32:16.679Z,102406.66
2022-08-31T15:34:57.590Z,102404.97
2022-08-31T15:37:31.665Z,102405.28
2022-08-31T15:40:01.117Z,102402.81
2022-08-31T15:42:29.533Z,102407.00
2022-08-31T15:44:57.137Z,102399.13
2022-08-31T15:47:48.894Z,102393.22
2022-08-31T15:50:20.255Z,102403.81
2022-08-31T15:52:51.791Z,102393.38
2022-08-31T15:55:26.328Z,102384.97
2022-08-31T15:57:55.128Z,102386.50
2022-08-31T16:00:23.860Z,102389.88
2022-08-31T16:02:53.791Z,102392.56
2022-08-31T16:05:20.911Z,102396.28
2022-08-31T16:07:48.199Z,102382.13
2022-08-31T16:10:19.367Z,102385.66
2022-08-31T16:12:47.001Z,102384.66
2022-08-31T16:15:15.400Z,102384.66
2022-08-31T16:17:42.149Z,102381.63
2022-08-31T16:20:13.624Z,102380.28
2022-08-31T16:22:41.970Z,102385.66
2022-08-31T16:25:11.611Z,102385.50
2022-08-31T16:27:39.773Z,102383.81
2022-08-31T16:30:11.875Z,102381.13
2022-08-31T16:32:38.675Z,102381.97
2022-08-31T16:35:05.686Z,102379.28
2022-08-31T16:37:33.183Z,102385.34
2022-08-31T16:40:00.077Z,102390.72
2022-08-31T16:42:26.822Z,102379.09
2022-08-31T16:44:53.412Z,102368.16
2022-08-31T16:47:21.476Z,102375.41
2022-08-31T16:49:48.119Z,102378.09
2022-08-31T16:52:26.537Z,102371.72
2022-08-31T16:54:57.143Z,102358.41
2022-08-31T16:57:27.580Z,102365.63
2022-08-31T16:59:56.987Z,102370.53
2022-08-31T17:02:24.987Z,102379.47
2022-08-31T17:04:53.653Z,102370.88
2022-08-31T17:07:22.600Z,102374.41
2022-08-31T17:09:49.147Z,102376.09
2022-08-31T17:12:19.205Z,102378.94
2022-08-31T17:14:50.175Z,102381.63
2022-08-31T17:17:26.707Z,102379.44
2022-08-31T17:19:58.709Z,102389.88
2022-08-31T17:22:32.675Z,102374.03
2022-08-31T17:25:02.682Z,102387.19
2022-08-31T17:27:29.545Z,102382.66
2022-08-31T17:29:56.436Z,102386.34
2022-08-31T17:32:26.936Z,102380.78
2022-08-31T17:34:54.974Z,102387.19
2022-08-31T17:37:26.445Z,102385.34
2022-08-31T17:39:53.807Z,102382.13
2022-08-31T17:42:22.018Z,102392.56
2022-08-31T17:44:52.106Z,102378.59
2022-08-31T17:47:20.283Z,102382.13
2022-08-31T17:49:47.007Z,102389.19
2022-08-31T17:52:13.886Z,102393.75
2022-08-31T17:54:43.181Z,102398.28
2022-08-31T17:57:13.626Z,102397.44
2022-08-31T17:59:43.533Z,102391.22
2022-08-31T18:02:16.694Z,102397.78
2022-08-31T18:04:43.807Z,102385.34
2022-08-31T18:07:11.504Z,102396.78
2022-08-31T18:09:40.693Z,102389.88
2022-08-31T18:12:08.565Z,102394.59
2022-08-31T18:14:38.071Z,102400.97
2022-08-31T18:17:08.308Z,102400.44
2022-08-31T18:19:35.725Z,102404.66
2022-08-31T18:22:03.480Z,102399.75
2022-08-31T18:24:34.157Z,102407.69
2022-08-31T18:27:06.974Z,102404.16
2022-08-31T18:29:37.446Z,102415.75
2022-08-31T18:32:06.455Z,102420.31
2022-08-31T18:34:36.703Z,102422.34
2022-08-31T18:37:04.255Z,102427.88
2022-08-31T18:39:52.125Z,102411.13
2022-08-31T18:42:40.896Z,102430.22
2022-08-31T18:45:20.640Z,102433.06
2022-08-31T18:50:50.298Z,102434.53
2022-08-31T18:53:28.393Z,102444.47
2022-08-31T18:56:08.314Z,102452.53
2022-08-31T18:58:36.211Z,102460.09
2022-08-31T19:01:03.354Z,102457.72
2022-08-31T19:03:30.392Z,102455.03
2022-08-31T19:05:57.562Z,102454.50
2022-08-31T19:08:26.153Z,102457.19
2022-08-31T19:10:53.099Z,102460.03
2022-08-31T19:13:19.684Z,102456.50
2022-08-31T19:15:46.324Z,102461.69
2022-08-31T19:18:13.213Z,102460.69
2022-08-31T19:20:40.852Z,102468.09
2022-08-31T19:23:08.270Z,102461.84
2022-08-31T19:25:42.224Z,102463.00
2022-08-31T19:28:08.792Z,102471.94
2022-08-31T19:30:36.271Z,102477.31
2022-08-31T19:33:07.407Z,102473.09
2022-08-31T19:35:36.130Z,102476.81
2022-08-31T19:38:02.963Z,102473.28
2022-08-31T19:40:38.126Z,102475.44
2022-08-31T19:45:53.602Z,102469.66
2022-08-31T19:48:23.188Z,102477.06
2022-08-31T19:50:50.434Z,102472.84
2022-08-31T19:53:20.844Z,102476.00
2022-08-31T19:55:50.760Z,102475.47
2022-08-31T19:58:19.932Z,102472.25
2022-08-31T20:00:48.039Z,102483.00
2022-08-31T20:03:15.718Z,102484.00
2022-08-31T20:05:43.376Z,102486.88
2022-08-31T20:08:10.940Z,102489.03
2022-08-31T20:10:46.691Z,102497.41
2022-08-31T20:13:13.400Z,102492.19
2022-08-31T20:15:43.186Z,102493.34
2022-08-31T20:18:11.795Z,102499.03
2022-08-31T20:20:45.140Z,102506.41
2022-08-31T20:23:16.650Z,102503.84
2022-08-31T20:25:45.648Z,102506.00
2022-08-31T20:28:13.532Z,102508.69
2022-08-31T20:30:41.534Z,102516.06
2022-08-31T20:33:09.602Z,102502.09
2022-08-31T20:35:47.021Z,102504.09
2022-08-31T20:38:15.898Z,102499.34
2022-08-31T20:40:44.292Z,102508.25
2022-08-31T20:43:12.790Z,102497.13
2022-08-31T20:45:41.493Z,102497.44
2022-08-31T20:48:27.487Z,102502.97
2022-08-31T20:50:55.729Z,102507.63
2022-08-31T20:53:25.076Z,102498.03
2022-08-31T20:56:09.931Z,102498.03
2022-08-31T20:58:37.196Z,102496.34
2022-08-31T21:01:07.374Z,102496.66
2022-08-31T21:03:34.751Z,102494.13
2022-08-31T21:06:08.321Z,102494.97
2022-08-31T21:08:38.369Z,102492.75
2022-08-31T21:11:16.880Z,102500.81
2022-08-31T21:13:44.623Z,102497.28
2022-08-31T21:16:11.534Z,102504.47
2022-08-31T21:18:40.028Z,102501.09
2022-08-31T21:21:08.915Z,102499.41
2022-08-31T21:23:36.870Z,102504.94
2022-08-31T21:26:04.934Z,102490.84
2022-08-31T21:28:31.489Z,102498.03
2022-08-31T21:31:16.554Z,102500.56
2022-08-31T21:33:45.948Z,102499.88
2022-08-31T21:36:17.644Z,102507.09
2022-08-31T21:38:45.153Z,102511.78
2022-08-31T21:41:14.632Z,102500.78
2022-08-31T21:43:41.163Z,102506.84
2022-08-31T21:46:10.700Z,102504.47
2022-08-31T21:48:39.830Z,102513.50
2022-08-31T21:51:21.670Z,102515.53
2022-08-31T21:53:54.355Z,102519.06
2022-08-31T21:56:23.672Z,102512.84
2022-08-31T21:58:50.736Z,102506.78
2022-08-31T22:01:18.653Z,102508.63
2022-08-31T22:03:50.874Z,102500.69
2022-08-31T22:06:26.741Z,102500.25
2022-08-31T22:09:00.165Z,102504.50
2022-08-31T22:11:29.883Z,102500.13
2022-08-31T22:13:58.637Z,102497.59
2022-08-31T22:16:26.368Z,102497.22
2022-08-31T22:19:03.038Z,102493.53
2022-08-31T22:21:34.111Z,102489.28
2022-08-31T22:24:05.011Z,102493.69
2022-08-31T22:26:37.773Z,102502.59
2022-08-31T22:29:06.215Z,102494.13
2022-08-31T22:31:34.956Z,102500.19
2022-08-31T22:34:01.662Z,102500.19
2022-08-31T22:36:32.298Z,102492.13
2022-08-31T22:39:05.283Z,102499.50
2022-08-31T22:41:33.507Z,102483.97
2022-08-31T22:44:00.561Z,102492.72
2022-08-31T22:46:28.330Z,102474.13
2022-08-31T22:48:55.554Z,102495.16
2022-08-31T22:51:22.564Z,102500.69
2022-08-31T22:53:51.678Z,102496.31
2022-08-31T22:56:30.393Z,102500.84
2022-08-31T22:58:59.408Z,102501.97
2022-08-31T23:01:33.076Z,102491.22
2022-08-31T23:04:01.437Z,102489.16
2022-08-31T23:06:30.318Z,102487.84
2022-08-31T23:08:58.092Z,102482.47
2022-08-31T23:11:25.371Z,102478.09
2022-08-31T23:13:58.770Z,102489.88
2022-08-31T23:16:33.401Z,102487.06
2022-08-31T23:19:12.075Z,102481.13
2022-08-31T23:21:46.726Z,102474.25
2022-08-31T23:24:31.944Z,102475.25
2022-08-31T23:27:04.144Z,102471.84
2022-08-31T23:29:53.404Z,102469.47
2022-08-31T23:32:27.753Z,102477.66
2022-08-31T23:34:58.398Z,102471.44
2022-08-31T23:37:26.147Z,102467.53
2022-08-31T23:39:54.646Z,102455.38
2022-08-31T23:42:23.577Z,102465.00
2022-08-31T23:44:50.422Z,102460.47
2022-08-31T23:47:21.335Z,102450.03
2022-08-31T23:49:51.083Z,102455.25
2022-08-31T23:52:21.326Z,102468.50
2022-08-31T23:54:49.900Z,102457.22
2022-08-31T23:57:31.585Z,102453.84
